sensor_id;sensor_type;location;lat;lon;timestamp;pressure;altitude;pressure_sealevel;temperature;humidity
30618;BME280;17384;51.214;9.202;2023-05-11T00:01:16;98474.41;;;11.35;97.87
30618;BME280;17384;51.214;9.202;2023-05-11T00:03:41;98455.63;;;11.33;97.63
30618;BME280;17384;51.214;9.202;2023-05-11T00:06:07;98467.69;;;11.37;97.43
30618;BME280;17384;51.214;9.202;2023-05-11T00:08:32;98464.75;;;11.39;97.15
30618;BME280;17384;51.214;9.202;2023-05-11T00:10:58;98467.69;;;11.37;97.04
30618;BME280;17384;51.214;9.202;2023-05-11T00:13:27;98464.81;;;11.32;97.13
30618;BME280;17384;51.214;9.202;2023-05-11T00:15:53;98464.00;;;11.32;97.38
30618;BME280;17384;51.214;9.202;2023-05-11T00:18:18;98456.22;;;11.35;97.28
30618;BME280;17384;51.214;9.202;2023-05-11T00:20:44;98459.63;;;11.31;97.56
30618;BME280;17384;51.214;9.202;2023-05-11T00:23:09;98451.78;;;11.23;97.85
30618;BME280;17384;51.214;9.202;2023-05-11T00:25:35;98461.81;;;11.22;97.65
30618;BME280;17384;51.214;9.202;2023-05-11T00:28:00;98459.47;;;11.26;97.96
30618;BME280;17384;51.214;9.202;2023-05-11T00:30:26;98457.97;;;11.30;97.73
30618;BME280;17384;51.214;9.202;2023-05-11T00:32:51;98458.56;;;11.32;97.37
30618;BME280;17384;51.214;9.202;2023-05-11T00:35:17;98461.28;;;11.32;97.33
30618;BME280;17384;51.214;9.202;2023-05-11T00:37:42;98455.25;;;11.30;97.00
30618;BME280;17384;51.214;9.202;2023-05-11T00:40:08;98459.38;;;11.32;97.38
30618;BME280;17384;51.214;9.202;2023-05-11T00:42:33;98445.22;;;11.30;97.37
30618;BME280;17384;51.214;9.202;2023-05-11T00:44:59;98449.59;;;11.31;97.47
30618;BME280;17384;51.214;9.202;2023-05-11T00:47:25;98457.81;;;11.25;97.33
30618;BME280;17384;51.214;9.202;2023-05-11T00:49:52;98463.38;;;11.30;97.42
30618;BME280;17384;51.214;9.202;2023-05-11T00:52:20;98459.63;;;11.31;97.18
30618;BME280;17384;51.214;9.202;2023-05-11T00:54:46;98449.81;;;11.30;96.92
30618;BME280;17384;51.214;9.202;2023-05-11T00:57:13;98451.69;;;11.29;97.12
30618;BME280;17384;51.214;9.202;2023-05-11T00:59:39;98451.47;;;11.31;96.89
30618;BME280;17384;51.214;9.202;2023-05-11T01:02:05;98448.75;;;11.31;96.64
30618;BME280;17384;51.214;9.202;2023-05-11T01:04:31;98458.00;;;11.11;96.91
30618;BME280;17384;51.214;9.202;2023-05-11T01:07:22;98443.88;;;11.03;97.63
30618;BME280;17384;51.214;9.202;2023-05-11T01:10:20;98452.34;;;11.13;97.59
30618;BME280;17384;51.214;9.202;2023-05-11T01:15:50;98443.59;;;11.11;97.71
30618;BME280;17384;51.214;9.202;2023-05-11T01:20:57;98441.97;;;11.22;97.83
30618;BME280;17384;51.214;9.202;2023-05-11T01:23:41;98451.53;;;11.24;97.52
30618;BME280;17384;51.214;9.202;2023-05-11T01:26:09;98445.28;;;11.24;97.66
30618;BME280;17384;51.214;9.202;2023-05-11T01:31:24;98447.41;;;11.22;97.62
30618;BME280;17384;51.214;9.202;2023-05-11T01:34:20;98456.97;;;11.24;97.69
30618;BME280;17384;51.214;9.202;2023-05-11T01:37:11;98451.31;;;11.26;97.49
30618;BME280;17384;51.214;9.202;2023-05-11T01:39:47;98450.72;;;11.24;97.33
30618;BME280;17384;51.214;9.202;2023-05-11T01:42:15;98454.16;;;11.19;97.33
30618;BME280;17384;51.214;9.202;2023-05-11T01:44:46;98446.69;;;11.14;97.64
30618;BME280;17384;51.214;9.202;2023-05-11T01:47:14;98453.78;;;11.15;97.68
30618;BME280;17384;51.214;9.202;2023-05-11T01:49:43;98450.00;;;11.16;97.94
30618;BME280;17384;51.214;9.202;2023-05-11T01:52:10;98457.09;;;11.17;97.80
30618;BME280;17384;51.214;9.202;2023-05-11T01:54:37;98455.44;;;11.16;98.05
30618;BME280;17384;51.214;9.202;2023-05-11T01:57:03;98457.53;;;11.14;98.18
30618;BME280;17384;51.214;9.202;2023-05-11T01:59:31;98448.72;;;11.19;98.08
30618;BME280;17384;51.214;9.202;2023-05-11T02:01:57;98459.81;;;11.17;97.91
30618;BME280;17384;51.214;9.202;2023-05-11T02:04:24;98458.75;;;11.18;97.80
30618;BME280;17384;51.214;9.202;2023-05-11T02:06:52;98453.31;;;11.18;97.99
30618;BME280;17384;51.214;9.202;2023-05-11T02:09:20;98459.91;;;11.23;97.72
30618;BME280;17384;51.214;9.202;2023-05-11T02:11:48;98449.53;;;11.19;97.77
30618;BME280;17384;51.214;9.202;2023-05-11T02:14:17;98454.59;;;11.16;97.95
30618;BME280;17384;51.214;9.202;2023-05-11T02:16:45;98450.59;;;11.18;98.39
30618;BME280;17384;51.214;9.202;2023-05-11T02:19:12;98458.75;;;11.18;98.24
30618;BME280;17384;51.214;9.202;2023-05-11T02:21:38;98452.34;;;11.13;98.11
30618;BME280;17384;51.214;9.202;2023-05-11T02:24:06;98462.97;;;11.14;98.49
30618;BME280;17384;51.214;9.202;2023-05-11T02:26:32;98457.53;;;11.14;98.75
30618;BME280;17384;51.214;9.202;2023-05-11T02:28:58;98449.25;;;11.09;98.99
30618;BME280;17384;51.214;9.202;2023-05-11T02:31:27;98448.72;;;11.01;99.09
30618;BME280;17384;51.214;9.202;2023-05-11T02:33:58;98448.47;;;11.02;99.44
30618;BME280;17384;51.214;9.202;2023-05-11T02:36:27;98454.06;;;11.07;99.60
30618;BME280;17384;51.214;9.202;2023-05-11T02:38:57;98449.91;;;11.05;99.75
30618;BME280;17384;51.214;9.202;2023-05-11T02:41:26;98456.41;;;11.04;99.83
30618;BME280;17384;51.214;9.202;2023-05-11T02:43:54;98449.47;;;11.08;100.00
30618;BME280;17384;51.214;9.202;2023-05-11T02:46:24;98458.38;;;11.15;99.90
30618;BME280;17384;51.214;9.202;2023-05-11T02:48:53;98454.38;;;11.17;99.73
30618;BME280;17384;51.214;9.202;2023-05-11T02:51:23;98450.59;;;11.18;99.56
30618;BME280;17384;51.214;9.202;2023-05-11T02:53:52;98463.69;;;11.22;99.28
30618;BME280;17384;51.214;9.202;2023-05-11T02:56:20;98454.16;;;11.19;99.09
30618;BME280;17384;51.214;9.202;2023-05-11T02:58:47;98457.16;;;11.11;99.06
30618;BME280;17384;51.214;9.202;2023-05-11T03:01:13;98451.88;;;11.16;99.54
30618;BME280;17384;51.214;9.202;2023-05-11T03:03:39;98456.84;;;11.19;99.42
30618;BME280;17384;51.214;9.202;2023-05-11T03:06:05;98456.03;;;11.18;99.83
30618;BME280;17384;51.214;9.202;2023-05-11T03:08:30;98459.34;;;11.21;99.61
30618;BME280;17384;51.214;9.202;2023-05-11T03:10:56;98446.34;;;11.23;99.84
30618;BME280;17384;51.214;9.202;2023-05-11T03:13:24;98461.47;;;11.18;99.75
30618;BME280;17384;51.214;9.202;2023-05-11T03:15:51;98455.53;;;11.22;99.71
30618;BME280;17384;51.214;9.202;2023-05-11T03:18:18;98451.31;;;11.26;99.62
30618;BME280;17384;51.214;9.202;2023-05-11T03:20:44;98452.94;;;11.15;100.00
30618;BME280;17384;51.214;9.202;2023-05-11T03:23:11;98455.06;;;11.13;100.00
30618;BME280;17384;51.214;9.202;2023-05-11T03:25:40;98447.72;;;11.13;100.00
30618;BME280;17384;51.214;9.202;2023-05-11T03:28:07;98460.09;;;11.09;100.00
30618;BME280;17384;51.214;9.202;2023-05-11T03:30:33;98456.72;;;11.14;100.00
30618;BME280;17384;51.214;9.202;2023-05-11T03:32:59;98454.59;;;11.16;100.00
30618;BME280;17384;51.214;9.202;2023-05-11T03:35:26;98452.72;;;11.16;100.00
30618;BME280;17384;51.214;9.202;2023-05-11T03:37:55;98458.97;;;11.17;100.00
30618;BME280;17384;51.214;9.202;2023-05-11T03:40:22;98457.91;;;11.18;100.00
30618;BME280;17384;51.214;9.202;2023-05-11T03:42:50;98456.25;;;11.17;100.00
30618;BME280;17384;51.214;9.202;2023-05-11T03:45:19;98458.00;;;11.11;100.00
30618;BME280;17384;51.214;9.202;2023-05-11T03:47:47;98454.91;;;11.08;100.00
30618;BME280;17384;51.214;9.202;2023-05-11T03:50:14;98450.75;;;11.05;100.00
30618;BME280;17384;51.214;9.202;2023-05-11T03:52:39;98453.63;;;11.10;100.00
30618;BME280;17384;51.214;9.202;2023-05-11T03:55:06;98448.03;;;11.05;100.00
30618;BME280;17384;51.214;9.202;2023-05-11T03:57:32;98439.66;;;11.07;100.00
30618;BME280;17384;51.214;9.202;2023-05-11T03:59:58;98455.72;;;11.08;100.00
30618;BME280;17384;51.214;9.202;2023-05-11T04:02:23;98456.94;;;11.12;100.00
30618;BME280;17384;51.214;9.202;2023-05-11T04:04:49;98456.72;;;11.14;100.00
30618;BME280;17384;51.214;9.202;2023-05-11T04:07:16;98450.28;;;11.08;100.00
30618;BME280;17384;51.214;9.202;2023-05-11T04:09:42;98456.09;;;11.12;100.00
30618;BME280;17384;51.214;9.202;2023-05-11T04:12:07;98453.00;;;11.08;100.00
30618;BME280;17384;51.214;9.202;2023-05-11T04:14:32;98440.94;;;11.04;100.00
30618;BME280;17384;51.214;9.202;2023-05-11T04:16:58;98444.25;;;11.06;100.00
30618;BME280;17384;51.214;9.202;2023-05-11T04:19:23;98453.78;;;11.15;100.00
30618;BME280;17384;51.214;9.202;2023-05-11T04:21:49;98449.53;;;11.19;100.00
30618;BME280;17384;51.214;9.202;2023-05-11T04:24:14;98455.81;;;11.20;100.00
30618;BME280;17384;51.214;9.202;2023-05-11T04:26:40;98459.91;;;11.23;100.00
30618;BME280;17384;51.214;9.202;2023-05-11T04:29:05;98462.41;;;11.24;100.00
30618;BME280;17384;51.214;9.202;2023-05-11T04:31:31;98456.91;;;11.31;100.00
30618;BME280;17384;51.214;9.202;2023-05-11T04:33:56;98464.38;;;11.35;100.00
30618;BME280;17384;51.214;9.202;2023-05-11T04:36:21;98465.81;;;11.38;100.00
30618;BME280;17384;51.214;9.202;2023-05-11T04:38:47;98470.63;;;11.36;100.00
30618;BME280;17384;51.214;9.202;2023-05-11T04:41:12;98465.88;;;11.31;100.00
30618;BME280;17384;51.214;9.202;2023-05-11T04:43:39;98470.78;;;11.41;100.00
30618;BME280;17384;51.214;9.202;2023-05-11T04:46:04;98464.59;;;11.34;100.00
30618;BME280;17384;51.214;9.202;2023-05-11T04:48:30;98468.91;;;11.23;100.00
30618;BME280;17384;51.214;9.202;2023-05-11T04:50:56;98463.25;;;11.25;100.00
30618;BME280;17384;51.214;9.202;2023-05-11T04:53:22;98463.63;;;11.28;100.00
30618;BME280;17384;51.214;9.202;2023-05-11T04:55:48;98466.56;;;11.27;100.00
30618;BME280;17384;51.214;9.202;2023-05-11T04:58:13;98470.34;;;11.26;100.00
30618;BME280;17384;51.214;9.202;2023-05-11T05:00:39;98462.25;;;11.37;100.00
30618;BME280;17384;51.214;9.202;2023-05-11T05:03:05;98473.88;;;11.44;100.00
30618;BME280;17384;51.214;9.202;2023-05-11T05:05:30;98471.47;;;11.36;100.00
30618;BME280;17384;51.214;9.202;2023-05-11T05:07:55;98460.41;;;11.49;100.00
30618;BME280;17384;51.214;9.202;2023-05-11T05:10:21;98470.81;;;11.52;100.00
30618;BME280;17384;51.214;9.202;2023-05-11T05:12:47;98468.25;;;11.58;100.00
30618;BME280;17384;51.214;9.202;2023-05-11T05:15:12;98480.47;;;11.67;100.00
30618;BME280;17384;51.214;9.202;2023-05-11T05:17:38;98474.88;;;11.62;100.00
30618;BME280;17384;51.214;9.202;2023-05-11T05:20:05;98471.03;;;11.69;100.00
30618;BME280;17384;51.214;9.202;2023-05-11T05:22:32;98474.84;;;11.80;100.00
30618;BME280;17384;51.214;9.202;2023-05-11T05:24:57;98472.59;;;11.77;100.00
30618;BME280;17384;51.214;9.202;2023-05-11T05:27:23;98483.22;;;11.78;99.98
30618;BME280;17384;51.214;9.202;2023-05-11T05:29:49;98479.72;;;11.90;100.00
30618;BME280;17384;51.214;9.202;2023-05-11T05:32:14;98485.31;;;11.95;99.34
30618;BME280;17384;51.214;9.202;2023-05-11T05:34:40;98472.31;;;11.97;99.44
30618;BME280;17384;51.214;9.202;2023-05-11T05:37:05;98481.19;;;12.04;98.75
30618;BME280;17384;51.214;9.202;2023-05-11T05:39:31;98478.94;;;12.01;98.72
30618;BME280;17384;51.214;9.202;2023-05-11T05:41:56;98479.78;;;12.13;98.31
30618;BME280;17384;51.214;9.202;2023-05-11T05:44:22;98479.56;;;12.14;98.18
30618;BME280;17384;51.214;9.202;2023-05-11T05:46:47;98497.75;;;12.14;97.84
30618;BME280;17384;51.214;9.202;2023-05-11T05:49:13;98487.94;;;12.13;97.58
30618;BME280;17384;51.214;9.202;2023-05-11T05:51:38;98491.13;;;12.10;97.95
30618;BME280;17384;51.214;9.202;2023-05-11T05:54:04;98502.50;;;12.18;97.42
30618;BME280;17384;51.214;9.202;2023-05-11T05:56:30;98488.31;;;12.16;97.25
30618;BME280;17384;51.214;9.202;2023-05-11T05:58:56;98496.69;;;12.15;96.88
30618;BME280;17384;51.214;9.202;2023-05-11T06:01:21;98491.03;;;12.16;96.73
30618;BME280;17384;51.214;9.202;2023-05-11T06:03:47;98499.66;;;12.13;96.35
30618;BME280;17384;51.214;9.202;2023-05-11T06:06:13;98502.16;;;12.15;96.15
30618;BME280;17384;51.214;9.202;2023-05-11T06:08:38;98512.09;;;12.21;96.25
30618;BME280;17384;51.214;9.202;2023-05-11T06:11:04;98515.66;;;12.22;95.85
30618;BME280;17384;51.214;9.202;2023-05-11T06:13:30;98514.22;;;12.19;96.20
30618;BME280;17384;51.214;9.202;2023-05-11T06:15:55;98513.84;;;12.15;96.18
30618;BME280;17384;51.214;9.202;2023-05-11T06:18:21;98513.94;;;12.09;96.04
30618;BME280;17384;51.214;9.202;2023-05-11T06:20:46;98513.47;;;12.12;96.11
30618;BME280;17384;51.214;9.202;2023-05-11T06:23:12;98515.75;;;12.15;95.85
30618;BME280;17384;51.214;9.202;2023-05-11T06:25:37;98507.59;;;12.15;95.65
30618;BME280;17384;51.214;9.202;2023-05-11T06:28:02;98514.69;;;12.16;95.78
30618;BME280;17384;51.214;9.202;2023-05-11T06:30:28;98519.09;;;12.29;95.74
30618;BME280;17384;51.214;9.202;2023-05-11T06:32:55;98511.16;;;12.27;95.51
30618;BME280;17384;51.214;9.202;2023-05-11T06:35:20;98524.41;;;12.35;95.62
30618;BME280;17384;51.214;9.202;2023-05-11T06:37:46;98505.41;;;12.47;95.41
30618;BME280;17384;51.214;9.202;2023-05-11T06:40:12;98507.66;;;12.62;94.82
30618;BME280;17384;51.214;9.202;2023-05-11T06:42:40;98505.88;;;12.67;94.29
30618;BME280;17384;51.214;9.202;2023-05-11T06:45:06;98517.97;;;12.71;94.08
30618;BME280;17384;51.214;9.202;2023-05-11T06:47:32;98520.31;;;12.68;93.62
30618;BME280;17384;51.214;9.202;2023-05-11T06:49:57;98519.25;;;12.57;93.19
30618;BME280;17384;51.214;9.202;2023-05-11T06:52:23;98525.41;;;12.52;93.65
30618;BME280;17384;51.214;9.202;2023-05-11T06:54:48;98515.69;;;12.45;93.52
30618;BME280;17384;51.214;9.202;2023-05-11T06:57:13;98518.16;;;12.46;93.62
30618;BME280;17384;51.214;9.202;2023-05-11T06:59:39;98521.03;;;12.51;93.43
30618;BME280;17384;51.214;9.202;2023-05-11T07:02:04;98520.31;;;12.68;93.21
30618;BME280;17384;51.214;9.202;2023-05-11T07:04:30;98519.88;;;12.82;92.75
30618;BME280;17384;51.214;9.202;2023-05-11T07:06:55;98512.03;;;12.98;92.35
30618;BME280;17384;51.214;9.202;2023-05-11T07:09:21;98523.88;;;13.03;92.47
30618;BME280;17384;51.214;9.202;2023-05-11T07:11:47;98518.63;;;13.13;92.43
30618;BME280;17384;51.214;9.202;2023-05-11T07:14:12;98516.75;;;13.26;91.21
30618;BME280;17384;51.214;9.202;2023-05-11T07:16:37;98517.94;;;13.06;91.39
30618;BME280;17384;51.214;9.202;2023-05-11T07:19:05;98515.47;;;13.05;91.42
30618;BME280;17384;51.214;9.202;2023-05-11T07:21:30;98517.72;;;13.08;90.77
30618;BME280;17384;51.214;9.202;2023-05-11T07:23:59;98513.91;;;13.32;90.60
30618;BME280;17384;51.214;9.202;2023-05-11T07:26:25;98520.75;;;13.46;89.92
30618;BME280;17384;51.214;9.202;2023-05-11T07:28:50;98517.78;;;13.48;89.08
30618;BME280;17384;51.214;9.202;2023-05-11T07:31:16;98527.28;;;13.74;88.89
30618;BME280;17384;51.214;9.202;2023-05-11T07:33:41;98516.84;;;13.82;88.23
30618;BME280;17384;51.214;9.202;2023-05-11T07:36:07;98523.69;;;13.85;88.58
30618;BME280;17384;51.214;9.202;2023-05-11T07:38:32;98528.03;;;13.98;88.19
30618;BME280;17384;51.214;9.202;2023-05-11T07:40:58;98515.56;;;14.02;86.69
30618;BME280;17384;51.214;9.202;2023-05-11T07:43:23;98523.94;;;14.12;86.58
30618;BME280;17384;51.214;9.202;2023-05-11T07:45:49;98524.53;;;14.14;86.16
30618;BME280;17384;51.214;9.202;2023-05-11T07:48:14;98520.63;;;14.10;85.62
30618;BME280;17384;51.214;9.202;2023-05-11T07:50:40;98527.63;;;14.06;85.54
30618;BME280;17384;51.214;9.202;2023-05-11T07:53:06;98527.41;;;14.24;84.74
30618;BME280;17384;51.214;9.202;2023-05-11T07:55:32;98525.13;;;14.33;85.23
30618;BME280;17384;51.214;9.202;2023-05-11T07:57:58;98521.16;;;14.40;84.96
30618;BME280;17384;51.214;9.202;2023-05-11T08:00:23;98523.66;;;14.59;84.31
30618;BME280;17384;51.214;9.202;2023-05-11T08:02:49;98533.34;;;14.66;84.66
30618;BME280;17384;51.214;9.202;2023-05-11T08:05:15;98509.09;;;14.53;83.88
30618;BME280;17384;51.214;9.202;2023-05-11T08:07:41;98516.31;;;14.76;83.91
30618;BME280;17384;51.214;9.202;2023-05-11T08:10:06;98523.16;;;14.78;82.86
30618;BME280;17384;51.214;9.202;2023-05-11T08:12:33;98515.00;;;14.62;82.88
30618;BME280;17384;51.214;9.202;2023-05-11T08:14:59;98529.28;;;14.52;82.55
30618;BME280;17384;51.214;9.202;2023-05-11T08:17:24;98529.63;;;14.55;81.86
30618;BME280;17384;51.214;9.202;2023-05-11T08:19:50;98530.28;;;14.63;82.13
30618;BME280;17384;51.214;9.202;2023-05-11T08:22:16;98528.97;;;14.48;82.45
30618;BME280;17384;51.214;9.202;2023-05-11T08:24:41;98523.44;;;14.77;82.52
30618;BME280;17384;51.214;9.202;2023-05-11T08:27:07;98529.63;;;14.89;81.70
30618;BME280;17384;51.214;9.202;2023-05-11T08:29:33;98529.63;;;14.89;80.99
30618;BME280;17384;51.214;9.202;2023-05-11T08:31:58;98522.53;;;14.71;81.08
30618;BME280;17384;51.214;9.202;2023-05-11T08:34:24;98530.63;;;14.66;82.12
30618;BME280;17384;51.214;9.202;2023-05-11T08:36:49;98524.44;;;14.71;82.52
30618;BME280;17384;51.214;9.202;2023-05-11T08:39:16;98523.75;;;14.64;83.04
30618;BME280;17384;51.214;9.202;2023-05-11T08:41:42;98519.06;;;14.76;82.68
30618;BME280;17384;51.214;9.202;2023-05-11T08:44:08;98528.31;;;14.75;83.14
30618;BME280;17384;51.214;9.202;2023-05-11T08:46:39;98520.59;;;14.88;82.05
30618;BME280;17384;51.214;9.202;2023-05-11T08:49:06;98526.69;;;15.12;81.25
30618;BME280;17384;51.214;9.202;2023-05-11T08:51:32;98527.78;;;14.95;79.25
30618;BME280;17384;51.214;9.202;2023-05-11T08:53:57;98518.78;;;14.61;80.44
30618;BME280;17384;51.214;9.202;2023-05-11T08:56:25;98516.63;;;14.79;80.62
30618;BME280;17384;51.214;9.202;2023-05-11T08:58:53;98530.28;;;14.96;80.62
30618;BME280;17384;51.214;9.202;2023-05-11T09:01:19;98521.63;;;15.21;78.51
30618;BME280;17384;51.214;9.202;2023-05-11T09:03:47;98516.56;;;15.30;79.04
30618;BME280;17384;51.214;9.202;2023-05-11T09:06:13;98528.06;;;15.32;78.68
30618;BME280;17384;51.214;9.202;2023-05-11T09:08:40;98518.81;;;15.38;78.92
30618;BME280;17384;51.214;9.202;2023-05-11T09:11:06;98524.09;;;15.22;79.39
30618;BME280;17384;51.214;9.202;2023-05-11T09:13:32;98537.19;;;15.20;80.37
30618;BME280;17384;51.214;9.202;2023-05-11T09:15:58;98523.28;;;15.22;79.88
30618;BME280;17384;51.214;9.202;2023-05-11T09:18:23;98523.00;;;15.02;80.17
30618;BME280;17384;51.214;9.202;2023-05-11T09:20:49;98531.13;;;14.63;80.89
30618;BME280;17384;51.214;9.202;2023-05-11T09:23:16;98535.16;;;14.94;80.71
30618;BME280;17384;51.214;9.202;2023-05-11T09:25:41;98530.94;;;14.86;80.87
30618;BME280;17384;51.214;9.202;2023-05-11T09:28:10;98529.63;;;14.55;81.50
30618;BME280;17384;51.214;9.202;2023-05-11T09:30:36;98528.47;;;14.68;81.28
30618;BME280;17384;51.214;9.202;2023-05-11T09:33:01;98527.47;;;14.57;82.76
30618;BME280;17384;51.214;9.202;2023-05-11T09:35:32;98528.31;;;14.75;81.70
30618;BME280;17384;51.214;9.202;2023-05-11T09:38:06;98531.59;;;14.94;81.25
30618;BME280;17384;51.214;9.202;2023-05-11T09:40:37;98532.09;;;14.90;81.57
30618;BME280;17384;51.214;9.202;2023-05-11T09:43:16;98528.63;;;14.95;81.68
30618;BME280;17384;51.214;9.202;2023-05-11T09:45:44;98538.72;;;14.95;81.75
30618;BME280;17384;51.214;9.202;2023-05-11T09:48:24;98527.78;;;14.78;81.25
30618;BME280;17384;51.214;9.202;2023-05-11T09:50:51;98538.16;;;14.76;81.34
30618;BME280;17384;51.214;9.202;2023-05-11T09:53:39;98526.13;;;14.94;80.80
30618;BME280;17384;51.214;9.202;2023-05-11T09:56:05;98529.09;;;15.09;80.75
30618;BME280;17384;51.214;9.202;2023-05-11T09:58:57;98522.53;;;15.27;79.97
30618;BME280;17384;51.214;9.202;2023-05-11T10:01:31;98530.56;;;15.16;80.54
30618;BME280;17384;51.214;9.202;2023-05-11T10:03:57;98526.69;;;15.34;80.44
30618;BME280;17384;51.214;9.202;2023-05-11T10:06:24;98529.25;;;15.41;79.27
30618;BME280;17384;51.214;9.202;2023-05-11T10:08:50;98522.81;;;15.69;76.99
30618;BME280;17384;51.214;9.202;2023-05-11T10:11:16;98517.78;;;15.61;78.36
30618;BME280;17384;51.214;9.202;2023-05-11T10:13:43;98519.19;;;15.63;79.00
30618;BME280;17384;51.214;9.202;2023-05-11T10:16:11;98521.69;;;15.48;77.27
30618;BME280;17384;51.214;9.202;2023-05-11T10:18:37;98523.44;;;15.54;76.41
30618;BME280;17384;51.214;9.202;2023-05-11T10:21:03;98506.13;;;15.27;77.31
30618;BME280;17384;51.214;9.202;2023-05-11T10:23:29;98523.78;;;15.19;78.06
30618;BME280;17384;51.214;9.202;2023-05-11T10:25:55;98511.00;;;15.03;78.98
30618;BME280;17384;51.214;9.202;2023-05-11T10:28:21;98511.38;;;15.11;79.13
30618;BME280;17384;51.214;9.202;2023-05-11T10:30:47;98509.63;;;15.05;78.87
30618;BME280;17384;51.214;9.202;2023-05-11T10:33:13;98495.41;;;15.03;79.93
30618;BME280;17384;51.214;9.202;2023-05-11T10:35:38;98505.41;;;15.14;79.45
30618;BME280;17384;51.214;9.202;2023-05-11T10:38:05;98507.28;;;15.31;80.03
30618;BME280;17384;51.214;9.202;2023-05-11T10:40:37;98505.47;;;15.19;81.20
30618;BME280;17384;51.214;9.202;2023-05-11T10:51:29;98508.84;;;14.88;79.91
30618;BME280;17384;51.214;9.202;2023-05-11T11:02:22;98510.88;;;14.14;83.50
30618;BME280;17384;51.214;9.202;2023-05-11T11:04:50;98524.06;;;14.05;83.41
30618;BME280;17384;51.214;9.202;2023-05-11T11:07:17;98504.66;;;14.02;83.23
30618;BME280;17384;51.214;9.202;2023-05-11T11:09:58;98510.78;;;14.26;84.57
30618;BME280;17384;51.214;9.202;2023-05-11T11:12:31;98509.97;;;14.25;84.71
30618;BME280;17384;51.214;9.202;2023-05-11T11:15:02;98510.88;;;14.14;85.87
30618;BME280;17384;51.214;9.202;2023-05-11T11:17:32;98511.88;;;14.24;84.51
30618;BME280;17384;51.214;9.202;2023-05-11T11:20:00;98513.63;;;14.31;84.10
30618;BME280;17384;51.214;9.202;2023-05-11T11:25:10;98513.25;;;14.55;83.59
30618;BME280;17384;51.214;9.202;2023-05-11T11:30:21;98500.66;;;14.54;83.42
30618;BME280;17384;51.214;9.202;2023-05-11T11:32:49;98513.09;;;14.62;83.23
30618;BME280;17384;51.214;9.202;2023-05-11T11:35:43;98514.59;;;14.70;84.00
30618;BME280;17384;51.214;9.202;2023-05-11T11:38:17;98508.25;;;15.03;83.03
30618;BME280;17384;51.214;9.202;2023-05-11T11:40:45;98497.16;;;14.93;83.59
30618;BME280;17384;51.214;9.202;2023-05-11T11:43:16;98512.22;;;15.34;82.94
30618;BME280;17384;51.214;9.202;2023-05-11T11:46:00;98511.44;;;15.16;81.92
30618;BME280;17384;51.214;9.202;2023-05-11T11:48:36;98499.25;;;15.24;83.24
30618;BME280;17384;51.214;9.202;2023-05-11T11:51:07;98515.66;;;15.24;82.34
30618;BME280;17384;51.214;9.202;2023-05-11T11:56:07;98506.94;;;15.49;80.40
30618;BME280;17384;51.214;9.202;2023-05-11T11:58:56;98499.16;;;15.57;80.20
30618;BME280;17384;51.214;9.202;2023-05-11T12:01:25;98510.09;;;15.79;81.11
30618;BME280;17384;51.214;9.202;2023-05-11T12:06:39;98496.44;;;15.57;80.65
30618;BME280;17384;51.214;9.202;2023-05-11T12:09:06;98504.38;;;15.59;80.66
30618;BME280;17384;51.214;9.202;2023-05-11T12:11:32;98497.25;;;15.58;78.92
30618;BME280;17384;51.214;9.202;2023-05-11T12:14:01;98497.56;;;15.83;80.14
30618;BME280;17384;51.214;9.202;2023-05-11T12:16:27;98503.31;;;16.14;79.18
30618;BME280;17384;51.214;9.202;2023-05-11T12:18:56;98503.94;;;16.21;79.44
30618;BME280;17384;51.214;9.202;2023-05-11T12:23:52;98500.84;;;16.39;79.33
30618;BME280;17384;51.214;9.202;2023-05-11T12:26:19;98498.13;;;16.12;78.12
30618;BME280;17384;51.214;9.202;2023-05-11T12:28:48;98486.91;;;15.87;77.85
30618;BME280;17384;51.214;9.202;2023-05-11T12:31:15;98502.28;;;15.93;79.48
30618;BME280;17384;51.214;9.202;2023-05-11T12:33:48;98493.47;;;15.86;79.82
30618;BME280;17384;51.214;9.202;2023-05-11T12:36:17;98497.38;;;15.68;79.15
30618;BME280;17384;51.214;9.202;2023-05-11T12:41:09;98484.78;;;15.67;80.75
30618;BME280;17384;51.214;9.202;2023-05-11T12:43:35;98488.63;;;15.49;79.22
30618;BME280;17384;51.214;9.202;2023-05-11T12:46:02;98484.97;;;15.61;78.41
30618;BME280;17384;51.214;9.202;2023-05-11T12:48:28;98492.47;;;15.27;79.79
30618;BME280;17384;51.214;9.202;2023-05-11T12:50:53;98494.69;;;15.30;79.84
30618;BME280;17384;51.214;9.202;2023-05-11T12:53:20;98485.66;;;15.29;79.46
30618;BME280;17384;51.214;9.202;2023-05-11T12:55:58;98486.44;;;15.08;79.07
30618;BME280;17384;51.214;9.202;2023-05-11T12:58:23;98487.84;;;15.10;78.86
30618;BME280;17384;51.214;9.202;2023-05-11T13:00:51;98485.03;;;15.05;78.12
30618;BME280;17384;51.214;9.202;2023-05-11T13:03:27;98488.81;;;14.99;78.88
30618;BME280;17384;51.214;9.202;2023-05-11T13:06:05;98493.28;;;14.88;79.97
30618;BME280;17384;51.214;9.202;2023-05-11T13:08:32;98486.13;;;14.66;81.50
30618;BME280;17384;51.214;9.202;2023-05-11T13:11:20;98490.09;;;14.75;80.72
30618;BME280;17384;51.214;9.202;2023-05-11T13:13:54;98481.94;;;14.80;80.57
30618;BME280;17384;51.214;9.202;2023-05-11T13:16:27;98493.91;;;14.74;81.68
30618;BME280;17384;51.214;9.202;2023-05-11T13:19:11;98476.34;;;14.70;81.75
30618;BME280;17384;51.214;9.202;2023-05-11T13:21:36;98482.25;;;15.00;81.32
30618;BME280;17384;51.214;9.202;2023-05-11T13:24:02;98486.31;;;14.98;81.22
30618;BME280;17384;51.214;9.202;2023-05-11T13:26:29;98492.38;;;15.00;80.95
30618;BME280;17384;51.214;9.202;2023-05-11T13:28:55;98480.88;;;15.19;80.96
30618;BME280;17384;51.214;9.202;2023-05-11T13:31:21;98485.81;;;15.01;82.13
30618;BME280;17384;51.214;9.202;2023-05-11T13:33:49;98481.59;;;14.93;82.83
30618;BME280;17384;51.214;9.202;2023-05-11T13:36:15;98476.81;;;14.83;83.50
30618;BME280;17384;51.214;9.202;2023-05-11T13:38:41;98479.78;;;14.82;82.99
30618;BME280;17384;51.214;9.202;2023-05-11T13:41:06;98480.38;;;14.84;82.56